createdAt,value
2018-04-29T22:41:03.995Z,17.84
2018-04-29T22:43:57.128Z,17.80
2018-04-29T22:45:52.352Z,17.77
2018-04-29T22:46:50.283Z,17.74
2018-04-29T22:47:50.310Z,17.63
2018-04-29T22:48:50.301Z,17.62
2018-04-29T22:49:50.322Z,17.73
2018-04-29T22:50:50.332Z,17.65
2018-04-29T22:51:50.409Z,17.68
2018-04-29T22:52:50.417Z,17.70
2018-04-29T22:53:50.383Z,17.68
2018-04-29T22:54:50.422Z,17.65
2018-04-29T22:55:50.395Z,17.60
2018-04-29T22:56:50.407Z,17.54
2018-04-29T22:57:50.430Z,17.68
2018-04-29T22:58:50.464Z,17.62
2018-04-29T22:59:50.438Z,17.63
2018-04-29T23:00:50.465Z,17.54
2018-04-29T23:01:50.468Z,17.46
2018-04-29T23:02:50.466Z,17.53
2018-04-29T23:03:50.511Z,17.49
2018-04-29T23:04:50.515Z,17.45
2018-04-29T23:05:50.506Z,17.46
2018-04-29T23:06:50.519Z,17.42
2018-04-29T23:07:50.527Z,17.40
2018-04-29T23:08:50.587Z,17.32
2018-04-29T23:09:50.559Z,17.40
2018-04-29T23:10:50.590Z,17.32
2018-04-29T23:11:50.631Z,17.38
2018-04-29T23:12:50.617Z,17.33
2018-04-29T23:13:50.633Z,17.28
2018-04-29T23:14:50.635Z,17.39
2018-04-29T23:15:50.633Z,17.28
2018-04-29T23:16:50.640Z,17.39
2018-04-29T23:17:50.665Z,17.42
2018-04-29T23:18:50.698Z,17.36
2018-04-29T23:19:50.683Z,17.33
2018-04-29T23:20:50.694Z,17.38
2018-04-29T23:21:50.845Z,17.36
2018-04-29T23:22:50.719Z,17.38
2018-04-29T23:23:50.742Z,17.30
2018-04-29T23:24:50.744Z,17.28
2018-04-29T23:25:50.789Z,17.36
2018-04-29T23:26:50.789Z,17.27
2018-04-29T23:27:50.804Z,17.24
2018-04-29T23:28:50.800Z,17.20
2018-04-29T23:29:50.816Z,17.22
2018-04-29T23:30:50.832Z,17.17
2018-04-29T23:31:50.829Z,17.17
2018-04-29T23:32:50.847Z,17.06
2018-04-29T23:33:50.858Z,17.09
2018-04-29T23:34:50.865Z,17.10
2018-04-29T23:35:50.895Z,17.02
2018-04-29T23:36:50.900Z,16.85
2018-04-29T23:37:50.927Z,16.96
2018-04-29T23:38:50.920Z,16.96
2018-04-29T23:39:50.932Z,16.88
2018-04-29T23:40:50.941Z,16.82
2018-04-29T23:42:50.972Z,16.91
2018-04-29T23:43:50.981Z,16.88
2018-04-29T23:44:50.982Z,16.85
2018-04-29T23:45:51.015Z,16.90
2018-04-29T23:46:51.037Z,16.75
2018-04-29T23:47:51.040Z,16.80
2018-04-29T23:48:51.047Z,16.78
2018-04-29T23:49:51.072Z,16.87
2018-04-29T23:50:51.089Z,16.80
2018-04-29T23:51:51.090Z,16.85
2018-04-29T23:52:51.085Z,16.66
2018-04-29T23:53:51.099Z,16.73
2018-04-29T23:54:51.162Z,16.72
2018-04-29T23:55:51.141Z,16.67
2018-04-29T23:56:51.167Z,16.72
2018-04-29T23:57:51.152Z,16.70
2018-04-29T23:58:51.182Z,16.73
2018-04-29T23:59:51.181Z,16.73
